createdAt,value
2017-08-26T00:01:20.328Z,21.65
2017-08-26T00:03:47.949Z,21.62
2017-08-26T00:06:15.576Z,21.62
2017-08-26T00:08:43.191Z,21.63
2017-08-26T00:11:10.916Z,21.64
2017-08-26T00:13:38.545Z,21.61
2017-08-26T00:16:06.156Z,21.58
2017-08-26T00:18:34.275Z,21.57
2017-08-26T00:21:01.888Z,21.53
2017-08-26T00:23:29.592Z,21.46
2017-08-26T00:25:57.222Z,21.38
2017-08-26T00:28:24.792Z,21.33
2017-08-26T00:30:52.682Z,21.33
2017-08-26T00:33:20.300Z,21.30
2017-08-26T00:35:47.875Z,21.30
2017-08-26T00:38:15.488Z,21.29
2017-08-26T00:40:43.095Z,21.27
2017-08-26T00:43:10.711Z,21.27
2017-08-26T00:45:38.301Z,21.25
2017-08-26T00:48:06.029Z,21.24
2017-08-26T00:50:33.619Z,21.19
2017-08-26T00:53:01.632Z,21.12
2017-08-26T00:55:29.266Z,21.09
2017-08-26T00:57:56.891Z,21.09
2017-08-26T01:00:24.528Z,21.08
2017-08-26T01:02:52.107Z,21.05
2017-08-26T01:05:19.724Z,21.01
2017-08-26T01:07:47.336Z,20.95
2017-08-26T01:10:14.988Z,20.95
2017-08-26T01:12:42.586Z,20.97
2017-08-26T01:15:10.261Z,20.95
2017-08-26T01:17:37.887Z,20.95
2017-08-26T01:20:05.937Z,20.97
2017-08-26T01:22:33.605Z,20.98
2017-08-26T01:25:01.196Z,20.99
2017-08-26T01:27:28.836Z,20.96
2017-08-26T01:29:56.441Z,20.95
2017-08-26T01:32:24.052Z,20.95
2017-08-26T01:34:51.643Z,20.91
2017-08-26T01:37:19.549Z,20.89
2017-08-26T01:39:47.343Z,20.88
2017-08-26T01:42:15.051Z,20.86
2017-08-26T01:44:42.701Z,20.83
2017-08-26T01:47:10.458Z,20.79
2017-08-26T01:49:38.118Z,20.77
2017-08-26T01:52:05.724Z,20.76
2017-08-26T01:54:33.323Z,20.75
2017-08-26T01:57:00.931Z,20.76
2017-08-26T01:59:28.926Z,20.76
2017-08-26T02:01:56.522Z,20.74
2017-08-26T02:04:24.107Z,20.70
2017-08-26T02:06:51.738Z,20.70
2017-08-26T02:09:19.347Z,20.69
2017-08-26T02:11:46.946Z,20.69
2017-08-26T02:14:14.539Z,20.70
2017-08-26T02:16:42.141Z,20.73
2017-08-26T02:19:09.746Z,20.72
2017-08-26T02:21:37.368Z,20.70
2017-08-26T02:24:04.987Z,20.71
2017-08-26T02:26:32.565Z,20.69
2017-08-26T02:29:00.174Z,20.68
2017-08-26T02:31:27.787Z,20.68
2017-08-26T02:33:55.416Z,20.65
2017-08-26T02:36:23.031Z,20.62
2017-08-26T02:38:51.074Z,20.59
2017-08-26T02:41:18.675Z,20.55
2017-08-26T02:43:46.294Z,20.51
2017-08-26T02:46:13.975Z,20.46
2017-08-26T02:48:41.549Z,20.46
2017-08-26T02:51:09.180Z,20.36
2017-08-26T02:53:36.790Z,20.27
2017-08-26T02:56:04.405Z,20.21
2017-08-26T02:58:32.173Z,20.21
2017-08-26T03:00:59.888Z,20.22
2017-08-26T03:03:28.007Z,20.21
2017-08-26T03:05:56.010Z,20.18
2017-08-26T03:08:23.604Z,20.17
2017-08-26T03:10:51.196Z,20.17
2017-08-26T03:13:18.792Z,20.12
2017-08-26T03:15:46.392Z,20.11
2017-08-26T03:18:14.009Z,20.08
2017-08-26T03:20:41.614Z,20.03
2017-08-26T03:23:09.244Z,20.00
2017-08-26T03:25:36.849Z,20.01
2017-08-26T03:28:04.733Z,20.00
2017-08-26T03:30:32.454Z,20.00
2017-08-26T03:33:00.042Z,19.99
2017-08-26T03:35:27.678Z,19.97
2017-08-26T03:37:55.282Z,19.95
2017-08-26T03:40:22.906Z,19.95
2017-08-26T03:42:50.510Z,19.92
2017-08-26T03:45:18.144Z,19.90
2017-08-26T03:47:45.885Z,19.81
2017-08-26T03:50:13.499Z,19.72
2017-08-26T03:52:41.103Z,19.65
2017-08-26T03:55:09.146Z,19.61
2017-08-26T03:57:36.787Z,19.54
2017-08-26T04:00:04.392Z,19.52
2017-08-26T04:02:32.004Z,19.49
2017-08-26T04:04:59.609Z,19.44
2017-08-26T04:07:27.212Z,19.39
2017-08-26T04:09:54.956Z,19.36
2017-08-26T04:12:22.584Z,19.34
2017-08-26T04:14:50.190Z,19.32
2017-08-26T04:17:18.089Z,19.31
2017-08-26T04:19:45.696Z,19.27
2017-08-26T04:22:13.460Z,19.26
2017-08-26T04:24:41.076Z,19.25
2017-08-26T04:27:08.709Z,19.25
2017-08-26T04:29:36.434Z,19.26
2017-08-26T04:32:04.010Z,19.25
2017-08-26T04:34:31.616Z,19.27
2017-08-26T04:36:59.190Z,19.30
2017-08-26T04:39:27.186Z,19.32
2017-08-26T04:41:54.787Z,19.33
2017-08-26T04:44:22.381Z,19.35
2017-08-26T04:46:50.002Z,19.36
2017-08-26T04:49:17.608Z,19.41
2017-08-26T04:51:45.225Z,19.41
2017-08-26T04:54:12.831Z,19.40
2017-08-26T04:56:40.437Z,19.39
2017-08-26T04:59:08.032Z,19.41
2017-08-26T05:01:36.027Z,19.39
2017-08-26T05:04:03.626Z,19.36
2017-08-26T05:06:31.259Z,19.34
2017-08-26T05:08:58.842Z,19.36
2017-08-26T05:11:26.437Z,19.41
2017-08-26T05:13:54.075Z,19.59
2017-08-26T05:16:21.716Z,19.85
2017-08-26T05:18:49.657Z,19.88
2017-08-26T05:21:17.254Z,19.79
2017-08-26T05:23:44.868Z,19.74
2017-08-26T05:26:12.477Z,19.72
2017-08-26T05:28:40.086Z,19.69
2017-08-26T05:31:07.705Z,19.70
2017-08-26T05:33:35.299Z,19.71
2017-08-26T05:36:02.934Z,19.72
2017-08-26T05:38:30.528Z,19.76
2017-08-26T05:40:58.144Z,19.81
2017-08-26T05:43:25.769Z,19.81
2017-08-26T05:45:53.708Z,19.82
2017-08-26T05:48:21.289Z,19.85
2017-08-26T05:50:48.876Z,19.89
2017-08-26T05:53:16.509Z,19.96
2017-08-26T05:55:44.182Z,20.03
2017-08-26T05:58:11.956Z,20.02
2017-08-26T06:00:39.543Z,20.03
2017-08-26T06:03:07.234Z,20.08
2017-08-26T06:05:34.871Z,20.13
2017-08-26T06:08:02.816Z,20.21
2017-08-26T06:10:30.503Z,20.24
2017-08-26T06:12:58.132Z,20.32
2017-08-26T06:15:25.781Z,20.37
2017-08-26T06:17:53.408Z,20.43
2017-08-26T06:20:21.048Z,20.50
2017-08-26T06:22:48.626Z,20.55
2017-08-26T06:25:16.277Z,20.60
2017-08-26T06:27:43.895Z,20.66
2017-08-26T06:30:11.612Z,20.74
2017-08-26T06:32:39.221Z,20.81
2017-08-26T06:35:07.148Z,20.85
2017-08-26T06:37:34.740Z,20.89
2017-08-26T06:40:02.357Z,20.98
2017-08-26T06:42:29.990Z,21.06
2017-08-26T06:44:57.681Z,21.09
2017-08-26T06:47:25.301Z,21.15
2017-08-26T06:49:52.947Z,21.19
2017-08-26T06:52:21.055Z,21.24
2017-08-26T06:54:48.652Z,21.32
2017-08-26T06:57:16.296Z,21.40
2017-08-26T06:59:43.957Z,21.47
2017-08-26T07:02:11.542Z,21.51
2017-08-26T07:04:39.155Z,21.58
2017-08-26T07:07:06.792Z,21.64
2017-08-26T07:09:34.713Z,21.71
2017-08-26T07:12:02.323Z,21.78
2017-08-26T07:14:30.052Z,21.84
2017-08-26T07:16:57.738Z,21.92
2017-08-26T07:19:25.373Z,22.03
2017-08-26T07:21:52.986Z,22.08
2017-08-26T07:24:20.582Z,22.16
2017-08-26T07:26:48.231Z,22.23
2017-08-26T07:29:19.628Z,22.30
2017-08-26T07:31:47.256Z,22.38
2017-08-26T07:34:14.861Z,22.42
2017-08-26T07:36:42.867Z,22.46
2017-08-26T07:39:10.501Z,22.55
2017-08-26T07:41:38.229Z,22.64
2017-08-26T07:44:05.863Z,22.74
2017-08-26T07:46:33.454Z,22.83
2017-08-26T07:49:01.088Z,22.91
2017-08-26T07:51:28.705Z,22.98
2017-08-26T07:53:56.370Z,23.11
2017-08-26T07:56:23.995Z,23.16
2017-08-26T07:58:51.617Z,23.26
2017-08-26T08:01:19.212Z,23.38
2017-08-26T08:03:46.818Z,23.47
2017-08-26T08:06:14.434Z,23.54
2017-08-26T08:08:42.177Z,23.63
2017-08-26T08:11:09.806Z,23.70
2017-08-26T08:13:37.402Z,23.80
2017-08-26T08:16:05.033Z,23.95
2017-08-26T08:18:32.698Z,24.00
2017-08-26T08:21:00.714Z,24.05
2017-08-26T08:23:28.323Z,24.13
2017-08-26T08:25:55.932Z,24.22
2017-08-26T08:28:23.566Z,24.38
2017-08-26T08:30:51.192Z,24.48
2017-08-26T08:33:18.815Z,24.56
2017-08-26T08:35:46.438Z,24.64
2017-08-26T08:38:14.218Z,24.75
2017-08-26T08:40:41.813Z,24.84
2017-08-26T08:43:09.462Z,24.98
2017-08-26T08:45:37.072Z,25.09
2017-08-26T08:48:04.663Z,25.22
2017-08-26T08:50:32.293Z,25.28
2017-08-26T08:52:59.914Z,25.28
2017-08-26T08:55:27.537Z,25.31
2017-08-26T08:57:55.127Z,25.38
2017-08-26T09:00:22.773Z,25.48
2017-08-26T09:02:50.401Z,25.52
2017-08-26T09:05:18.020Z,25.58
2017-08-26T09:07:45.620Z,25.66
2017-08-26T09:10:13.642Z,25.76
2017-08-26T09:12:41.361Z,25.81
2017-08-26T09:15:08.973Z,25.89
2017-08-26T09:17:36.584Z,25.82
2017-08-26T09:20:04.161Z,25.79
2017-08-26T09:22:31.803Z,25.89
2017-08-26T09:24:59.406Z,26.05
2017-08-26T09:27:27.343Z,26.14
2017-08-26T09:29:54.960Z,26.23
2017-08-26T09:32:22.627Z,26.34
2017-08-26T09:34:50.373Z,26.47
2017-08-26T09:37:17.962Z,26.59
2017-08-26T09:39:45.653Z,26.78
2017-08-26T09:42:13.367Z,26.96
2017-08-26T09:44:41.344Z,27.08
2017-08-26T09:47:08.946Z,27.09
2017-08-26T09:49:36.532Z,27.02
2017-08-26T09:52:04.130Z,26.98
2017-08-26T09:54:31.692Z,26.89
2017-08-26T09:56:59.463Z,26.80
2017-08-26T09:59:27.095Z,26.80
2017-08-26T10:01:54.878Z,26.79
2017-08-26T10:04:22.547Z,26.89
2017-08-26T10:06:50.185Z,27.00
2017-08-26T10:09:17.785Z,27.15
2017-08-26T10:11:45.703Z,27.41
2017-08-26T10:14:13.290Z,27.57
2017-08-26T10:16:40.890Z,27.74
2017-08-26T10:19:08.498Z,27.77
2017-08-26T10:21:36.087Z,27.76
2017-08-26T10:24:03.710Z,27.68
2017-08-26T10:26:31.316Z,27.64
2017-08-26T10:28:58.966Z,27.79
2017-08-26T10:31:26.583Z,27.85
2017-08-26T10:33:54.209Z,27.86
2017-08-26T10:36:21.818Z,27.99
2017-08-26T10:38:49.421Z,27.94
2017-08-26T10:41:17.038Z,27.89
2017-08-26T10:43:44.608Z,27.95
2017-08-26T10:46:12.205Z,27.99
2017-08-26T10:48:39.942Z,28.00
2017-08-26T10:51:07.670Z,28.00
2017-08-26T10:53:35.292Z,28.10
2017-08-26T10:56:03.351Z,28.15
2017-08-26T10:58:30.931Z,28.07
2017-08-26T11:00:58.631Z,27.97
2017-08-26T11:03:26.259Z,27.92
2017-08-26T11:05:53.846Z,27.98
2017-08-26T11:08:21.676Z,28.07
2017-08-26T11:10:49.310Z,28.14
2017-08-26T11:13:16.911Z,28.21
2017-08-26T11:15:44.520Z,28.24
2017-08-26T11:18:12.165Z,28.38
2017-08-26T11:20:39.770Z,28.49
2017-08-26T11:23:07.710Z,28.49
2017-08-26T11:25:43.623Z,28.50
2017-08-26T11:28:11.639Z,28.52
2017-08-26T11:30:39.239Z,28.53
2017-08-26T11:33:06.853Z,28.56
2017-08-26T11:35:34.497Z,28.64
2017-08-26T11:38:02.062Z,28.73
2017-08-26T11:40:29.657Z,28.81
2017-08-26T11:42:57.234Z,28.92
2017-08-26T11:47:58.611Z,28.86
2017-08-26T11:50:26.262Z,28.78
2017-08-26T11:52:53.865Z,28.67
2017-08-26T11:55:21.797Z,28.63
2017-08-26T11:57:49.408Z,28.76
2017-08-26T12:00:17.114Z,28.84
2017-08-26T12:02:44.707Z,28.85
2017-08-26T12:05:12.295Z,28.94
2017-08-26T12:07:39.925Z,29.06
2017-08-26T12:10:07.553Z,29.11
2017-08-26T12:12:35.487Z,29.19
2017-08-26T12:15:03.098Z,29.29
2017-08-26T12:17:30.733Z,29.35
2017-08-26T12:19:58.352Z,29.37
2017-08-26T12:22:25.966Z,29.34
2017-08-26T12:24:53.616Z,29.33
2017-08-26T12:27:21.230Z,29.45
2017-08-26T12:29:48.890Z,29.50
2017-08-26T12:32:16.492Z,29.49
2017-08-26T12:34:44.463Z,29.53
2017-08-26T12:37:12.284Z,29.60
2017-08-26T12:39:39.914Z,29.78
2017-08-26T12:42:07.508Z,29.71
2017-08-26T12:44:35.110Z,29.65
2017-08-26T12:47:03.074Z,29.68
2017-08-26T12:49:30.673Z,29.78
2017-08-26T12:51:58.326Z,29.87
2017-08-26T12:54:25.980Z,29.95
2017-08-26T12:56:53.568Z,30.06
2017-08-26T12:59:21.201Z,30.24
2017-08-26T13:01:48.807Z,30.32
2017-08-26T13:04:16.415Z,30.17
2017-08-26T13:06:44.020Z,30.19
2017-08-26T13:09:12.069Z,30.23
2017-08-26T13:11:39.674Z,30.19
2017-08-26T13:14:07.244Z,30.18
2017-08-26T13:16:34.867Z,30.27
2017-08-26T13:19:02.503Z,30.33
2017-08-26T13:21:30.124Z,30.49
2017-08-26T13:23:57.731Z,30.59
2017-08-26T13:26:25.687Z,30.67
2017-08-26T13:28:53.282Z,30.77
2017-08-26T13:31:20.919Z,30.84
2017-08-26T13:33:48.506Z,30.98
2017-08-26T13:36:16.112Z,31.05
2017-08-26T13:38:43.738Z,31.06
2017-08-26T13:41:11.359Z,31.03
2017-08-26T13:43:39.436Z,31.07
2017-08-26T13:46:07.019Z,31.16
2017-08-26T13:48:34.663Z,31.28
2017-08-26T13:51:02.390Z,31.36
2017-08-26T13:53:29.990Z,31.49
2017-08-26T13:55:57.658Z,31.52
2017-08-26T13:58:25.388Z,31.56
2017-08-26T14:00:53.010Z,31.59
2017-08-26T14:03:20.610Z,31.73
2017-08-26T14:05:48.317Z,31.74
2017-08-26T14:08:15.910Z,31.77
2017-08-26T14:10:44.028Z,31.88
2017-08-26T14:13:11.734Z,32.07
2017-08-26T14:15:39.344Z,32.12
2017-08-26T14:18:07.892Z,32.19
2017-08-26T14:20:35.502Z,32.29
2017-08-26T14:23:03.118Z,32.30
2017-08-26T14:25:30.729Z,32.47
2017-08-26T14:27:58.354Z,32.72
2017-08-26T14:30:25.955Z,32.97
2017-08-26T14:32:53.594Z,33.25
2017-08-26T14:35:21.193Z,33.52
2017-08-26T14:37:49.107Z,33.60
2017-08-26T14:40:16.724Z,33.81
2017-08-26T14:42:44.317Z,34.09
2017-08-26T14:45:11.954Z,34.25
2017-08-26T14:47:39.528Z,34.20
2017-08-26T14:50:07.126Z,34.35
2017-08-26T14:52:34.804Z,34.52
2017-08-26T14:55:02.426Z,34.46
2017-08-26T14:57:30.040Z,34.47
2017-08-26T14:59:57.829Z,34.44
2017-08-26T15:02:25.460Z,34.32
2017-08-26T15:04:53.071Z,34.29
2017-08-26T15:07:20.673Z,33.87
2017-08-26T15:09:48.589Z,33.89
2017-08-26T15:12:16.197Z,34.00
2017-08-26T15:14:43.799Z,34.05
2017-08-26T15:17:11.429Z,34.24
2017-08-26T15:19:39.012Z,34.16
2017-08-26T15:22:06.852Z,34.35
2017-08-26T15:24:34.446Z,34.40
2017-08-26T15:27:02.057Z,34.37
2017-08-26T15:29:29.675Z,34.12
2017-08-26T15:31:57.604Z,34.05
2017-08-26T15:34:25.221Z,33.92
2017-08-26T15:36:52.848Z,33.79
2017-08-26T15:39:20.463Z,33.46
2017-08-26T15:41:48.047Z,33.30
2017-08-26T15:44:15.712Z,33.27
2017-08-26T15:46:43.305Z,33.03
2017-08-26T15:49:10.921Z,32.73
2017-08-26T15:51:38.545Z,32.43
2017-08-26T15:54:06.215Z,32.23
2017-08-26T15:56:33.862Z,32.02
2017-08-26T15:59:01.885Z,31.81
2017-08-26T16:01:29.591Z,31.82
2017-08-26T16:03:57.193Z,31.84
2017-08-26T16:06:24.847Z,31.95
2017-08-26T16:08:52.458Z,31.92
2017-08-26T16:11:20.061Z,31.89
2017-08-26T16:13:47.649Z,31.65
2017-08-26T16:16:15.253Z,31.38
2017-08-26T16:18:42.860Z,31.18
2017-08-26T16:21:10.479Z,31.04
2017-08-26T16:23:38.100Z,31.02
2017-08-26T16:26:05.704Z,30.96
2017-08-26T16:28:33.303Z,30.96
2017-08-26T16:31:01.271Z,30.90
2017-08-26T16:33:28.861Z,30.87
2017-08-26T16:35:56.446Z,30.85
2017-08-26T16:38:24.204Z,30.76
2017-08-26T16:40:51.777Z,30.69
2017-08-26T16:43:19.508Z,30.65
2017-08-26T16:45:47.129Z,30.61
2017-08-26T16:48:14.726Z,30.50
2017-08-26T16:50:42.397Z,30.31
2017-08-26T16:53:10.460Z,30.16
2017-08-26T16:55:38.060Z,30.12
2017-08-26T16:58:06.062Z,30.05
2017-08-26T17:00:33.627Z,29.98
2017-08-26T17:03:01.213Z,29.94
2017-08-26T17:05:28.835Z,29.86
2017-08-26T17:07:56.451Z,29.78
2017-08-26T17:10:24.076Z,29.71
2017-08-26T17:12:51.868Z,29.63
2017-08-26T17:15:19.491Z,29.57
2017-08-26T17:17:47.089Z,29.49
2017-08-26T17:20:14.724Z,29.43
2017-08-26T17:22:42.329Z,29.36
2017-08-26T17:25:10.228Z,29.28
2017-08-26T17:27:37.968Z,29.22
2017-08-26T17:30:05.570Z,29.14
2017-08-26T17:32:33.185Z,29.05
2017-08-26T17:35:01.733Z,28.95
2017-08-26T17:37:29.365Z,28.81
2017-08-26T17:39:56.987Z,28.69
2017-08-26T17:42:24.612Z,28.60
2017-08-26T17:44:52.219Z,28.49
2017-08-26T17:47:19.882Z,28.38
2017-08-26T17:49:47.473Z,28.28
2017-08-26T17:52:15.429Z,28.17
2017-08-26T17:54:43.014Z,28.05
2017-08-26T17:57:10.639Z,27.93
2017-08-26T17:59:38.366Z,27.82
2017-08-26T18:02:05.991Z,27.72
2017-08-26T18:04:33.687Z,27.63
2017-08-26T18:07:01.304Z,27.58
2017-08-26T18:09:29.087Z,27.49
2017-08-26T18:11:56.662Z,27.41
2017-08-26T18:14:24.282Z,27.33
2017-08-26T18:16:51.946Z,27.24
2017-08-26T18:19:19.575Z,27.15
2017-08-26T18:21:47.446Z,27.04
2017-08-26T18:24:15.093Z,26.88
2017-08-26T18:26:42.688Z,26.79
2017-08-26T18:29:10.304Z,26.66
2017-08-26T18:31:37.907Z,26.56
2017-08-26T18:36:45.038Z,26.36
2017-08-26T18:39:13.015Z,26.28
2017-08-26T18:41:40.656Z,26.21
2017-08-26T18:44:08.293Z,26.14
2017-08-26T18:46:35.935Z,26.11
2017-08-26T18:49:03.502Z,26.08
2017-08-26T18:51:31.122Z,26.03
2017-08-26T18:53:58.722Z,25.96
2017-08-26T18:56:26.641Z,25.89
2017-08-26T18:58:54.341Z,25.84
2017-08-26T19:01:22.039Z,25.81
2017-08-26T19:03:49.670Z,25.71
2017-08-26T19:06:17.425Z,25.52
2017-08-26T19:08:45.379Z,25.39
2017-08-26T19:11:12.968Z,25.32
2017-08-26T19:13:40.563Z,25.28
2017-08-26T19:16:08.211Z,25.21
2017-08-26T19:18:35.823Z,25.16
2017-08-26T19:21:03.520Z,25.08
2017-08-26T19:23:31.111Z,25.00
2017-08-26T19:25:58.797Z,24.92
2017-08-26T19:28:26.413Z,24.81
2017-08-26T19:30:54.346Z,24.75
2017-08-26T19:33:21.966Z,24.68
2017-08-26T19:35:49.567Z,24.62
2017-08-26T19:38:17.175Z,24.56
2017-08-26T19:40:44.939Z,24.53
2017-08-26T19:43:13.889Z,24.49
2017-08-26T19:45:41.513Z,24.45
2017-08-26T19:48:10.817Z,24.41
2017-08-26T19:50:38.419Z,24.36
2017-08-26T19:53:06.068Z,24.32
2017-08-26T19:55:33.653Z,24.27
2017-08-26T19:58:01.222Z,24.22
2017-08-26T20:00:29.569Z,24.13
2017-08-26T20:02:57.160Z,24.05
2017-08-26T20:05:24.798Z,24.02
2017-08-26T20:07:52.401Z,23.99
2017-08-26T20:10:20.447Z,23.91
2017-08-26T20:12:48.079Z,23.85
2017-08-26T20:15:15.667Z,23.80
2017-08-26T20:17:43.280Z,23.78
2017-08-26T20:20:10.918Z,23.75
2017-08-26T20:22:38.587Z,23.72
2017-08-26T20:25:06.184Z,23.69
2017-08-26T20:27:33.825Z,23.64
2017-08-26T20:30:01.433Z,23.53
2017-08-26T20:32:29.377Z,23.49
2017-08-26T20:34:56.955Z,23.51
2017-08-26T20:37:24.576Z,23.51
2017-08-26T20:39:52.222Z,23.51
2017-08-26T20:42:19.948Z,23.52
2017-08-26T20:44:47.602Z,23.50
2017-08-26T20:47:15.286Z,23.51
2017-08-26T20:49:42.916Z,23.51
2017-08-26T20:52:10.534Z,23.50
2017-08-26T20:54:38.583Z,23.50
2017-08-26T20:57:06.215Z,23.50
2017-08-26T20:59:33.828Z,23.48
2017-08-26T21:02:01.466Z,23.45
2017-08-26T21:04:29.080Z,23.41
2017-08-26T21:06:56.719Z,23.39
2017-08-26T21:09:24.571Z,23.37
2017-08-26T21:11:52.532Z,23.33
2017-08-26T21:14:20.193Z,23.25
2017-08-26T21:16:47.923Z,23.21
2017-08-26T21:19:15.576Z,23.18
2017-08-26T21:21:43.182Z,23.16
2017-08-26T21:24:11.256Z,23.17
2017-08-26T21:26:38.869Z,23.12
2017-08-26T21:29:06.501Z,23.04
2017-08-26T21:31:34.117Z,22.95
2017-08-26T21:34:01.745Z,22.90
2017-08-26T21:36:29.490Z,22.86
2017-08-26T21:38:57.111Z,22.82
2017-08-26T21:41:26.508Z,22.79
2017-08-26T21:43:54.118Z,22.74
2017-08-26T21:46:21.833Z,22.69
2017-08-26T21:48:49.497Z,22.64
2017-08-26T21:51:17.097Z,22.61
2017-08-26T21:53:44.732Z,22.55
2017-08-26T21:56:12.363Z,22.52
2017-08-26T21:58:40.076Z,22.50
2017-08-26T22:01:07.786Z,22.50
2017-08-26T22:03:35.691Z,22.50
2017-08-26T22:06:03.295Z,22.49
2017-08-26T22:08:30.900Z,22.50
2017-08-26T22:10:58.657Z,22.49
2017-08-26T22:13:26.260Z,22.48
2017-08-26T22:15:53.864Z,22.46
2017-08-26T22:18:21.458Z,22.44
2017-08-26T22:20:49.408Z,22.43
2017-08-26T22:23:17.038Z,22.43
2017-08-26T22:25:44.742Z,22.40
2017-08-26T22:28:12.350Z,22.38
2017-08-26T22:30:39.964Z,22.38
2017-08-26T22:33:07.633Z,22.34
2017-08-26T22:35:35.335Z,22.29
2017-08-26T22:38:02.950Z,22.26
2017-08-26T22:40:30.546Z,22.21
2017-08-26T22:42:58.204Z,22.14
2017-08-26T22:45:25.793Z,22.09
2017-08-26T22:47:53.681Z,22.03
2017-08-26T22:50:21.302Z,21.99
2017-08-26T22:52:49.034Z,21.93
2017-08-26T22:55:16.826Z,21.89
2017-08-26T22:57:44.454Z,21.83
2017-08-26T23:00:12.103Z,21.75
2017-08-26T23:02:39.687Z,21.72
2017-08-26T23:05:07.327Z,21.70
2017-08-26T23:07:34.950Z,21.65
2017-08-26T23:10:02.547Z,21.60
2017-08-26T23:12:30.169Z,21.59
2017-08-26T23:14:58.974Z,21.57
2017-08-26T23:17:26.609Z,21.55
2017-08-26T23:19:54.217Z,21.54
2017-08-26T23:22:22.177Z,21.52
2017-08-26T23:24:49.778Z,21.49
2017-08-26T23:27:17.551Z,21.44
2017-08-26T23:29:45.281Z,21.42
2017-08-26T23:32:12.900Z,21.41
2017-08-26T23:34:40.525Z,21.40
2017-08-26T23:37:08.173Z,21.38
2017-08-26T23:39:36.029Z,21.35
2017-08-26T23:42:03.631Z,21.29
2017-08-26T23:44:31.552Z,21.21
2017-08-26T23:46:59.245Z,21.14
2017-08-26T23:49:26.833Z,21.13
2017-08-26T23:51:54.461Z,21.11
2017-08-26T23:54:22.104Z,21.07
2017-08-26T23:56:49.727Z,21.04
2017-08-26T23:59:17.401Z,21.01
